sensor_id;sensor_type;location;lat;lon;timestamp;pressure;altitude;pressure_sealevel;temperature;humidity
75886;BME280;64561;44.018;10.144;2023-05-29T00:01:47;101175.97;;;19.49;78.12
75886;BME280;64561;44.018;10.144;2023-05-29T00:04:14;101175.97;;;19.52;77.76
75886;BME280;64561;44.018;10.144;2023-05-29T00:06:41;101175.09;;;19.52;78.03
75886;BME280;64561;44.018;10.144;2023-05-29T00:09:08;101173.44;;;19.43;77.24
75886;BME280;64561;44.018;10.144;2023-05-29T00:11:39;101172.63;;;19.38;76.47
75886;BME280;64561;44.018;10.144;2023-05-29T00:14:06;101165.78;;;19.25;77.47
75886;BME280;64561;44.018;10.144;2023-05-29T00:16:36;101166.63;;;19.30;77.93
75886;BME280;64561;44.018;10.144;2023-05-29T00:19:04;101182.25;;;19.19;77.12
75886;BME280;64561;44.018;10.144;2023-05-29T00:21:31;101177.06;;;19.21;76.89
75886;BME280;64561;44.018;10.144;2023-05-29T00:23:59;101180.50;;;19.26;77.31
75886;BME280;64561;44.018;10.144;2023-05-29T00:26:26;101184.00;;;19.15;76.64
75886;BME280;64561;44.018;10.144;2023-05-29T00:28:54;101190.06;;;19.10;76.56
75886;BME280;64561;44.018;10.144;2023-05-29T00:31:21;101180.56;;;19.13;76.88
75886;BME280;64561;44.018;10.144;2023-05-29T00:33:48;101184.88;;;19.13;76.41
75886;BME280;64561;44.018;10.144;2023-05-29T00:36:15;101193.50;;;19.19;77.25
75886;BME280;64561;44.018;10.144;2023-05-29T00:38:44;101186.59;;;19.20;77.04
75886;BME280;64561;44.018;10.144;2023-05-29T00:41:15;101187.41;;;19.22;77.55
75886;BME280;64561;44.018;10.144;2023-05-29T00:43:43;101185.69;;;19.24;77.93
75886;BME280;64561;44.018;10.144;2023-05-29T00:46:13;101183.06;;;19.29;77.88
75886;BME280;64561;44.018;10.144;2023-05-29T00:48:41;101188.28;;;19.26;77.35
75886;BME280;64561;44.018;10.144;2023-05-29T00:51:10;101188.31;;;19.18;77.50
75886;BME280;64561;44.018;10.144;2023-05-29T00:53:40;101184.03;;;19.14;77.97
75886;BME280;64561;44.018;10.144;2023-05-29T00:56:09;101185.72;;;19.18;78.38
75886;BME280;64561;44.018;10.144;2023-05-29T00:58:37;101187.47;;;19.14;78.11
75886;BME280;64561;44.018;10.144;2023-05-29T01:01:04;101187.47;;;19.17;78.15
75886;BME280;64561;44.018;10.144;2023-05-29T01:03:33;101180.56;;;19.16;78.61
75886;BME280;64561;44.018;10.144;2023-05-29T01:06:02;101175.38;;;19.10;77.37
75886;BME280;64561;44.018;10.144;2023-05-29T01:08:30;101177.13;;;19.07;78.05
75886;BME280;64561;44.018;10.144;2023-05-29T01:11:01;101173.75;;;18.94;78.19
75886;BME280;64561;44.018;10.144;2023-05-29T01:13:34;101177.22;;;18.93;78.09
75886;BME280;64561;44.018;10.144;2023-05-29T01:25:19;101169.53;;;18.53;77.77
75886;BME280;64561;44.018;10.144;2023-05-29T01:31:32;101168.69;;;18.60;78.64
75886;BME280;64561;44.018;10.144;2023-05-29T01:34:38;101156.59;;;18.59;79.01
75886;BME280;64561;44.018;10.144;2023-05-29T01:37:05;101169.50;;;18.70;79.24
75886;BME280;64561;44.018;10.144;2023-05-29T01:39:32;101168.63;;;18.71;79.15
75886;BME280;64561;44.018;10.144;2023-05-29T01:42:00;101169.53;;;18.68;79.30
75886;BME280;64561;44.018;10.144;2023-05-29T01:44:28;101166.91;;;18.73;79.14
75886;BME280;64561;44.018;10.144;2023-05-29T01:46:56;101170.34;;;18.80;78.98
75886;BME280;64561;44.018;10.144;2023-05-29T01:49:26;101165.16;;;18.70;77.86
75886;BME280;64561;44.018;10.144;2023-05-29T01:51:54;101162.59;;;18.72;78.78
75886;BME280;64561;44.018;10.144;2023-05-29T01:54:22;101156.53;;;18.71;78.50
75886;BME280;64561;44.018;10.144;2023-05-29T01:56:49;101155.69;;;18.66;78.20
75886;BME280;64561;44.018;10.144;2023-05-29T01:59:17;101153.97;;;18.68;78.31
75886;BME280;64561;44.018;10.144;2023-05-29T02:01:44;101157.44;;;18.55;76.75
75886;BME280;64561;44.018;10.144;2023-05-29T02:04:11;101154.84;;;18.55;77.14
75886;BME280;64561;44.018;10.144;2023-05-29T02:06:39;101150.56;;;18.43;77.87
75886;BME280;64561;44.018;10.144;2023-05-29T02:09:06;101152.31;;;18.46;78.04
75886;BME280;64561;44.018;10.144;2023-05-29T02:11:33;101142.81;;;18.48;78.57
75886;BME280;64561;44.018;10.144;2023-05-29T02:14:00;101144.53;;;18.46;77.34
75886;BME280;64561;44.018;10.144;2023-05-29T02:16:30;101135.06;;;18.34;77.74
75886;BME280;64561;44.018;10.144;2023-05-29T02:19:01;101141.13;;;18.28;76.57
75886;BME280;64561;44.018;10.144;2023-05-29T02:21:48;101147.16;;;18.37;77.45
75886;BME280;64561;44.018;10.144;2023-05-29T02:24:15;101137.63;;;18.43;77.70
75886;BME280;64561;44.018;10.144;2023-05-29T02:26:42;101140.22;;;18.45;77.46
75886;BME280;64561;44.018;10.144;2023-05-29T02:29:09;101149.69;;;18.52;77.69
75886;BME280;64561;44.018;10.144;2023-05-29T02:31:37;101151.41;;;18.55;77.78
75886;BME280;64561;44.018;10.144;2023-05-29T02:34:04;101151.41;;;18.53;77.66
75886;BME280;64561;44.018;10.144;2023-05-29T02:36:31;101155.75;;;18.51;76.42
75886;BME280;64561;44.018;10.144;2023-05-29T02:38:59;101147.19;;;18.23;77.51
75886;BME280;64561;44.018;10.144;2023-05-29T02:41:26;101159.25;;;18.25;78.21
75886;BME280;64561;44.018;10.144;2023-05-29T02:43:53;101157.53;;;18.27;78.64
75886;BME280;64561;44.018;10.144;2023-05-29T02:46:20;101157.53;;;18.23;77.30
75886;BME280;64561;44.018;10.144;2023-05-29T02:48:48;101158.41;;;18.25;77.78
75886;BME280;64561;44.018;10.144;2023-05-29T02:51:16;101147.19;;;18.24;77.41
75886;BME280;64561;44.018;10.144;2023-05-29T02:53:43;101152.34;;;18.27;77.59
75886;BME280;64561;44.018;10.144;2023-05-29T02:56:10;101154.13;;;18.12;77.86
75886;BME280;64561;44.018;10.144;2023-05-29T02:58:37;101142.91;;;18.13;78.49
75886;BME280;64561;44.018;10.144;2023-05-29T03:01:04;101157.59;;;18.12;77.20
75886;BME280;64561;44.018;10.144;2023-05-29T03:03:31;101151.56;;;18.05;76.46
75886;BME280;64561;44.018;10.144;2023-05-29T03:05:59;101155.00;;;18.03;77.22
75886;BME280;64561;44.018;10.144;2023-05-29T03:08:29;101147.22;;;18.08;77.84
75886;BME280;64561;44.018;10.144;2023-05-29T03:10:56;101149.81;;;18.09;77.70
75886;BME280;64561;44.018;10.144;2023-05-29T03:13:24;101152.38;;;18.14;77.78
75886;BME280;64561;44.018;10.144;2023-05-29T03:15:59;101151.53;;;18.16;77.23
75886;BME280;64561;44.018;10.144;2023-05-29T03:18:27;101148.06;;;18.16;77.60
75886;BME280;64561;44.018;10.144;2023-05-29T03:20:54;101148.94;;;18.15;78.09
75886;BME280;64561;44.018;10.144;2023-05-29T03:23:22;101151.53;;;18.18;78.25
75886;BME280;64561;44.018;10.144;2023-05-29T03:25:53;101154.97;;;18.14;77.33
75886;BME280;64561;44.018;10.144;2023-05-29T03:28:20;101146.41;;;17.93;76.45
75886;BME280;64561;44.018;10.144;2023-05-29T03:30:48;101137.72;;;17.96;77.22
75886;BME280;64561;44.018;10.144;2023-05-29T03:33:18;101144.63;;;17.98;77.65
75886;BME280;64561;44.018;10.144;2023-05-29T03:35:58;101150.66;;;18.05;77.08
75886;BME280;64561;44.018;10.144;2023-05-29T03:38:26;101145.50;;;18.03;77.78
75886;BME280;64561;44.018;10.144;2023-05-29T03:40:56;101144.66;;;18.00;77.65
75886;BME280;64561;44.018;10.144;2023-05-29T03:43:23;101142.91;;;17.99;77.43
75886;BME280;64561;44.018;10.144;2023-05-29T03:45:50;101146.38;;;18.01;77.93
75886;BME280;64561;44.018;10.144;2023-05-29T03:48:17;101133.47;;;17.84;78.02
75886;BME280;64561;44.018;10.144;2023-05-29T03:50:46;101141.19;;;17.75;77.56
75886;BME280;64561;44.018;10.144;2023-05-29T03:53:18;101133.44;;;17.79;77.76
75886;BME280;64561;44.018;10.144;2023-05-29T03:55:46;101135.16;;;17.73;76.92
75886;BME280;64561;44.018;10.144;2023-05-29T03:58:13;101136.00;;;17.76;77.51
75886;BME280;64561;44.018;10.144;2023-05-29T04:00:40;101141.22;;;17.84;77.95
75886;BME280;64561;44.018;10.144;2023-05-29T04:03:08;101147.25;;;17.85;78.02
75886;BME280;64561;44.018;10.144;2023-05-29T04:05:35;101146.41;;;17.79;78.58
75886;BME280;64561;44.018;10.144;2023-05-29T04:08:05;101161.91;;;17.70;78.15
75886;BME280;64561;44.018;10.144;2023-05-29T04:10:41;101167.06;;;17.72;78.47
75886;BME280;64561;44.018;10.144;2023-05-29T04:13:10;101168.81;;;17.77;79.09
75886;BME280;64561;44.018;10.144;2023-05-29T04:15:38;101155.84;;;17.71;77.82
75886;BME280;64561;44.018;10.144;2023-05-29T04:18:05;101168.81;;;17.70;77.19
75886;BME280;64561;44.018;10.144;2023-05-29T04:20:33;101168.81;;;17.70;77.54
75886;BME280;64561;44.018;10.144;2023-05-29T04:23:00;101178.28;;;17.71;77.50
75886;BME280;64561;44.018;10.144;2023-05-29T04:25:28;101177.44;;;17.67;77.30
75886;BME280;64561;44.018;10.144;2023-05-29T04:27:56;101186.06;;;17.71;77.69
75886;BME280;64561;44.018;10.144;2023-05-29T04:30:23;101183.47;;;17.68;77.41
75886;BME280;64561;44.018;10.144;2023-05-29T04:32:51;101187.78;;;17.75;78.09
75886;BME280;64561;44.018;10.144;2023-05-29T04:35:20;101198.19;;;17.81;78.42
75886;BME280;64561;44.018;10.144;2023-05-29T04:38:01;101203.34;;;17.82;78.16
75886;BME280;64561;44.018;10.144;2023-05-29T04:40:31;101205.91;;;17.73;78.05
75886;BME280;64561;44.018;10.144;2023-05-29T04:43:03;101205.88;;;17.75;78.41
75886;BME280;64561;44.018;10.144;2023-05-29T04:45:50;101212.84;;;17.80;78.89
75886;BME280;64561;44.018;10.144;2023-05-29T04:48:18;101202.44;;;17.74;78.01
75886;BME280;64561;44.018;10.144;2023-05-29T04:50:46;101216.25;;;17.67;78.09
75886;BME280;64561;44.018;10.144;2023-05-29T04:53:13;101216.25;;;17.49;78.27
75886;BME280;64561;44.018;10.144;2023-05-29T04:55:40;101205.00;;;17.39;78.75
75886;BME280;64561;44.018;10.144;2023-05-29T04:58:07;101202.41;;;17.34;79.17
75886;BME280;64561;44.018;10.144;2023-05-29T05:00:34;101206.72;;;17.45;79.41
75886;BME280;64561;44.018;10.144;2023-05-29T05:03:01;101209.34;;;17.60;80.07
75886;BME280;64561;44.018;10.144;2023-05-29T05:05:29;101208.50;;;17.67;79.94
75886;BME280;64561;44.018;10.144;2023-05-29T05:07:59;101217.16;;;17.78;79.30
75886;BME280;64561;44.018;10.144;2023-05-29T05:10:27;101222.34;;;17.86;79.76
75886;BME280;64561;44.018;10.144;2023-05-29T05:12:54;101221.50;;;17.93;80.31
75886;BME280;64561;44.018;10.144;2023-05-29T05:15:22;101222.34;;;17.97;80.63
75886;BME280;64561;44.018;10.144;2023-05-29T05:17:49;101221.47;;;18.04;80.78
75886;BME280;64561;44.018;10.144;2023-05-29T05:20:16;101226.66;;;18.07;81.22
75886;BME280;64561;44.018;10.144;2023-05-29T05:22:48;101235.28;;;18.04;81.79
75886;BME280;64561;44.018;10.144;2023-05-29T05:25:15;101237.88;;;18.04;78.80
75886;BME280;64561;44.018;10.144;2023-05-29T05:27:46;101241.31;;;18.07;77.11
75886;BME280;64561;44.018;10.144;2023-05-29T05:30:14;101239.59;;;18.16;77.63
75886;BME280;64561;44.018;10.144;2023-05-29T05:32:41;101237.00;;;18.25;78.69
75886;BME280;64561;44.018;10.144;2023-05-29T05:35:14;101238.72;;;18.34;79.66
75886;BME280;64561;44.018;10.144;2023-05-29T05:37:43;101236.97;;;18.38;79.81
75886;BME280;64561;44.018;10.144;2023-05-29T05:40:11;101238.69;;;18.45;79.34
75886;BME280;64561;44.018;10.144;2023-05-29T05:42:49;101236.94;;;18.53;79.19
75886;BME280;64561;44.018;10.144;2023-05-29T05:45:19;101245.56;;;18.58;79.07
75886;BME280;64561;44.018;10.144;2023-05-29T05:47:47;101245.56;;;18.61;79.04
75886;BME280;64561;44.018;10.144;2023-05-29T05:50:15;101248.16;;;18.66;77.17
75886;BME280;64561;44.018;10.144;2023-05-29T05:52:44;101243.81;;;18.69;75.51
75886;BME280;64561;44.018;10.144;2023-05-29T05:55:12;101242.94;;;18.70;74.96
75886;BME280;64561;44.018;10.144;2023-05-29T05:57:39;101242.97;;;18.75;75.98
75886;BME280;64561;44.018;10.144;2023-05-29T06:00:07;101243.81;;;18.86;76.64
75886;BME280;64561;44.018;10.144;2023-05-29T06:02:43;101243.75;;;18.97;74.25
75886;BME280;64561;44.018;10.144;2023-05-29T06:05:20;101241.13;;;19.03;73.93
75886;BME280;64561;44.018;10.144;2023-05-29T06:07:48;101238.53;;;19.08;74.41
75886;BME280;64561;44.018;10.144;2023-05-29T06:10:15;101244.50;;;19.19;72.31
75886;BME280;64561;44.018;10.144;2023-05-29T06:12:42;101237.59;;;19.21;71.42
75886;BME280;64561;44.018;10.144;2023-05-29T06:15:18;101241.84;;;19.33;71.52
75886;BME280;64561;44.018;10.144;2023-05-29T06:17:45;101229.72;;;19.36;70.47
75886;BME280;64561;44.018;10.144;2023-05-29T06:20:15;101249.56;;;19.47;70.95
75886;BME280;64561;44.018;10.144;2023-05-29T06:22:42;101239.16;;;19.48;70.28
75886;BME280;64561;44.018;10.144;2023-05-29T06:25:09;101245.19;;;19.52;70.52
75886;BME280;64561;44.018;10.144;2023-05-29T06:27:36;101226.97;;;19.58;69.65
75886;BME280;64561;44.018;10.144;2023-05-29T06:30:04;101237.38;;;19.66;66.84
75886;BME280;64561;44.018;10.144;2023-05-29T06:32:32;101232.03;;;19.79;64.45
75886;BME280;64561;44.018;10.144;2023-05-29T06:34:59;101230.28;;;19.86;66.81
75886;BME280;64561;44.018;10.144;2023-05-29T06:37:28;101237.97;;;19.98;64.53
75886;BME280;64561;44.018;10.144;2023-05-29T06:39:55;101236.19;;;20.03;67.09
75886;BME280;64561;44.018;10.144;2023-05-29T06:42:23;101237.00;;;20.12;64.01
75886;BME280;64561;44.018;10.144;2023-05-29T06:44:57;101235.25;;;20.12;65.67
75886;BME280;64561;44.018;10.144;2023-05-29T06:47:24;101238.66;;;20.22;63.67
75886;BME280;64561;44.018;10.144;2023-05-29T06:49:51;101236.84;;;20.27;64.96
75886;BME280;64561;44.018;10.144;2023-05-29T06:52:19;101236.00;;;20.28;65.77
75886;BME280;64561;44.018;10.144;2023-05-29T06:55:15;101244.56;;;20.38;62.32
75886;BME280;64561;44.018;10.144;2023-05-29T06:57:42;101239.22;;;20.48;63.90
75886;BME280;64561;44.018;10.144;2023-05-29T07:00:10;101241.78;;;20.51;64.60
75886;BME280;64561;44.018;10.144;2023-05-29T07:02:43;101246.09;;;20.59;64.66
75886;BME280;64561;44.018;10.144;2023-05-29T07:05:10;101245.97;;;20.71;64.29
75886;BME280;64561;44.018;10.144;2023-05-29T07:07:37;101247.53;;;20.84;63.13
75886;BME280;64561;44.018;10.144;2023-05-29T07:10:06;101243.19;;;20.86;61.93
75886;BME280;64561;44.018;10.144;2023-05-29T07:12:33;101246.63;;;20.87;62.27
75886;BME280;64561;44.018;10.144;2023-05-29T07:15:00;101249.19;;;20.91;63.11
75886;BME280;64561;44.018;10.144;2023-05-29T07:17:29;101247.47;;;20.90;61.78
75886;BME280;64561;44.018;10.144;2023-05-29T07:20:09;101244.84;;;20.92;61.08
75886;BME280;64561;44.018;10.144;2023-05-29T07:22:37;101249.91;;;21.02;62.92
75886;BME280;64561;44.018;10.144;2023-05-29T07:25:05;101248.88;;;21.16;61.81
75886;BME280;64561;44.018;10.144;2023-05-29T07:27:33;101247.06;;;21.24;61.98
75886;BME280;64561;44.018;10.144;2023-05-29T07:30:01;101250.47;;;21.26;61.09
75886;BME280;64561;44.018;10.144;2023-05-29T07:32:29;101254.81;;;21.26;61.75
75886;BME280;64561;44.018;10.144;2023-05-29T07:34:58;101250.34;;;21.35;60.72
75886;BME280;64561;44.018;10.144;2023-05-29T07:37:25;101252.72;;;21.55;59.28
75886;BME280;64561;44.018;10.144;2023-05-29T07:39:52;101253.38;;;21.68;59.31
75886;BME280;64561;44.018;10.144;2023-05-29T07:42:38;101255.22;;;21.60;58.15
75886;BME280;64561;44.018;10.144;2023-05-29T07:45:05;101253.44;;;21.65;60.27
75886;BME280;64561;44.018;10.144;2023-05-29T07:47:32;101252.53;;;21.67;60.37
75886;BME280;64561;44.018;10.144;2023-05-29T07:50:00;101240.25;;;21.74;58.28
75886;BME280;64561;44.018;10.144;2023-05-29T07:52:29;101250.53;;;21.83;60.24
75886;BME280;64561;44.018;10.144;2023-05-29T07:54:56;101251.38;;;21.85;59.83
75886;BME280;64561;44.018;10.144;2023-05-29T07:57:27;101241.00;;;21.82;60.92
75886;BME280;64561;44.018;10.144;2023-05-29T07:59:57;101240.88;;;21.90;62.49
75886;BME280;64561;44.018;10.144;2023-05-29T08:02:25;101240.75;;;21.99;66.71
75886;BME280;64561;44.018;10.144;2023-05-29T08:05:13;101244.84;;;22.12;66.42
75886;BME280;64561;44.018;10.144;2023-05-29T08:07:41;101239.50;;;22.20;63.91
75886;BME280;64561;44.018;10.144;2023-05-29T08:10:09;101235.03;;;22.28;63.25
75886;BME280;64561;44.018;10.144;2023-05-29T08:12:36;101240.19;;;22.33;64.08
75886;BME280;64561;44.018;10.144;2023-05-29T08:15:04;101235.75;;;22.36;63.49
75886;BME280;64561;44.018;10.144;2023-05-29T08:17:31;101235.75;;;22.36;65.10
75886;BME280;64561;44.018;10.144;2023-05-29T08:19:58;101233.88;;;22.45;63.59
75886;BME280;64561;44.018;10.144;2023-05-29T08:22:29;101230.31;;;22.47;63.19
75886;BME280;64561;44.018;10.144;2023-05-29T08:25:00;101230.38;;;22.46;63.12
75886;BME280;64561;44.018;10.144;2023-05-29T08:27:29;101232.81;;;22.55;63.52
75886;BME280;64561;44.018;10.144;2023-05-29T08:30:03;101236.09;;;22.65;61.45
75886;BME280;64561;44.018;10.144;2023-05-29T08:32:30;101230.78;;;22.69;58.91
75886;BME280;64561;44.018;10.144;2023-05-29T08:34:57;101237.59;;;22.76;61.15
75886;BME280;64561;44.018;10.144;2023-05-29T08:37:24;101233.94;;;22.85;58.42
75886;BME280;64561;44.018;10.144;2023-05-29T08:39:52;101242.47;;;22.95;59.20
75886;BME280;64561;44.018;10.144;2023-05-29T08:42:29;101233.78;;;22.94;59.42
75886;BME280;64561;44.018;10.144;2023-05-29T08:44:56;101236.31;;;22.99;60.44
75886;BME280;64561;44.018;10.144;2023-05-29T08:47:26;101237.81;;;23.11;60.59
75886;BME280;64561;44.018;10.144;2023-05-29T08:49:54;101236.91;;;23.10;58.81
75886;BME280;64561;44.018;10.144;2023-05-29T08:52:25;101237.47;;;23.26;56.77
75886;BME280;64561;44.018;10.144;2023-05-29T08:54:53;101233.81;;;23.33;55.13
75886;BME280;64561;44.018;10.144;2023-05-29T08:57:21;101241.50;;;23.41;56.51
75886;BME280;64561;44.018;10.144;2023-05-29T08:59:51;101244.06;;;23.42;54.29
75886;BME280;64561;44.018;10.144;2023-05-29T09:02:19;101248.50;;;23.39;54.98
75886;BME280;64561;44.018;10.144;2023-05-29T09:04:47;101244.97;;;23.40;54.99
75886;BME280;64561;44.018;10.144;2023-05-29T09:07:20;101243.16;;;23.43;55.16
75886;BME280;64561;44.018;10.144;2023-05-29T09:09:48;101243.13;;;23.45;54.33
75886;BME280;64561;44.018;10.144;2023-05-29T09:12:16;101243.19;;;23.42;54.12
75886;BME280;64561;44.018;10.144;2023-05-29T09:14:44;101245.75;;;23.45;52.47
75886;BME280;64561;44.018;10.144;2023-05-29T09:17:12;101240.41;;;23.49;51.67
75886;BME280;64561;44.018;10.144;2023-05-29T09:19:40;101248.22;;;23.51;51.49
75886;BME280;64561;44.018;10.144;2023-05-29T09:22:13;101250.66;;;23.59;51.25
75886;BME280;64561;44.018;10.144;2023-05-29T09:24:47;101261.97;;;23.59;50.35
75886;BME280;64561;44.018;10.144;2023-05-29T09:27:14;101250.91;;;23.48;52.06
75886;BME280;64561;44.018;10.144;2023-05-29T09:33:14;101263.66;;;23.23;55.12
75886;BME280;64561;44.018;10.144;2023-05-29T09:35:44;101261.03;;;23.23;57.52
75886;BME280;64561;44.018;10.144;2023-05-29T09:38:13;101266.34;;;23.18;59.19
75886;BME280;64561;44.018;10.144;2023-05-29T09:41:03;101266.41;;;23.15;59.89
75886;BME280;64561;44.018;10.144;2023-05-29T09:43:32;101274.19;;;23.18;63.50
75886;BME280;64561;44.018;10.144;2023-05-29T09:46:01;101265.63;;;23.12;64.78
75886;BME280;64561;44.018;10.144;2023-05-29T09:48:33;101264.97;;;23.02;64.86
75886;BME280;64561;44.018;10.144;2023-05-29T09:51:02;101262.53;;;22.91;64.79
75886;BME280;64561;44.018;10.144;2023-05-29T09:53:29;101265.19;;;22.88;66.04
75886;BME280;64561;44.018;10.144;2023-05-29T09:55:57;101262.59;;;22.88;65.49
75886;BME280;64561;44.018;10.144;2023-05-29T09:58:28;101262.56;;;22.90;66.99
75886;BME280;64561;44.018;10.144;2023-05-29T10:00:55;101264.91;;;23.03;65.30
75886;BME280;64561;44.018;10.144;2023-05-29T10:03:25;101256.81;;;23.16;64.30
75886;BME280;64561;44.018;10.144;2023-05-29T10:05:54;101258.44;;;23.21;66.07
75886;BME280;64561;44.018;10.144;2023-05-29T10:08:25;101257.47;;;23.25;66.10
75886;BME280;64561;44.018;10.144;2023-05-29T10:10:59;101255.75;;;23.26;67.19
75886;BME280;64561;44.018;10.144;2023-05-29T10:13:33;101252.09;;;23.35;65.64
75886;BME280;64561;44.018;10.144;2023-05-29T10:16:04;101253.59;;;23.45;66.09
75886;BME280;64561;44.018;10.144;2023-05-29T10:18:43;101254.50;;;23.42;63.56
75886;BME280;64561;44.018;10.144;2023-05-29T10:21:14;101250.19;;;23.41;63.05
75886;BME280;64561;44.018;10.144;2023-05-29T10:23:46;101252.03;;;23.36;64.44
75886;BME280;64561;44.018;10.144;2023-05-29T10:26:27;101251.91;;;23.42;66.32
75886;BME280;64561;44.018;10.144;2023-05-29T10:29:05;101247.25;;;23.55;65.50
75886;BME280;64561;44.018;10.144;2023-05-29T10:31:48;101249.97;;;23.50;64.59
75886;BME280;64561;44.018;10.144;2023-05-29T10:37:34;101240.00;;;23.66;66.67
75886;BME280;64561;44.018;10.144;2023-05-29T10:40:07;101243.38;;;23.73;63.91
75886;BME280;64561;44.018;10.144;2023-05-29T10:42:48;101243.41;;;23.71;64.31
75886;BME280;64561;44.018;10.144;2023-05-29T10:50:42;101241.41;;;23.83;64.50
75886;BME280;64561;44.018;10.144;2023-05-29T10:53:14;101255.34;;;23.82;63.97
75886;BME280;64561;44.018;10.144;2023-05-29T10:55:42;101246.34;;;23.93;61.97
75886;BME280;64561;44.018;10.144;2023-05-29T10:58:12;101241.81;;;24.00;61.47
75886;BME280;64561;44.018;10.144;2023-05-29T11:00:40;101241.81;;;24.00;60.70
75886;BME280;64561;44.018;10.144;2023-05-29T11:03:19;101240.38;;;23.88;65.89
75886;BME280;64561;44.018;10.144;2023-05-29T11:08:46;101244.59;;;23.94;61.56
75886;BME280;64561;44.018;10.144;2023-05-29T11:11:34;101245.44;;;23.96;63.56
75886;BME280;64561;44.018;10.144;2023-05-29T11:14:04;101241.91;;;23.97;59.43
75886;BME280;64561;44.018;10.144;2023-05-29T11:19:07;101243.50;;;24.04;59.75
75886;BME280;64561;44.018;10.144;2023-05-29T11:24:25;101238.66;;;23.89;56.50
75886;BME280;64561;44.018;10.144;2023-05-29T11:26:56;101244.81;;;23.86;57.28
75886;BME280;64561;44.018;10.144;2023-05-29T11:29:28;101237.91;;;23.82;56.73
75886;BME280;64561;44.018;10.144;2023-05-29T11:32:04;101234.50;;;23.80;55.71
75886;BME280;64561;44.018;10.144;2023-05-29T11:34:32;101236.19;;;23.83;59.19
75886;BME280;64561;44.018;10.144;2023-05-29T11:37:00;101241.81;;;24.00;57.27
75886;BME280;64561;44.018;10.144;2023-05-29T11:39:29;101235.81;;;23.98;58.09
75886;BME280;64561;44.018;10.144;2023-05-29T11:41:58;101238.13;;;24.09;57.27
75886;BME280;64561;44.018;10.144;2023-05-29T11:44:27;101232.06;;;24.07;56.41
75886;BME280;64561;44.018;10.144;2023-05-29T11:47:04;101228.41;;;24.14;56.34
75886;BME280;64561;44.018;10.144;2023-05-29T11:49:34;101235.50;;;24.10;56.42
75886;BME280;64561;44.018;10.144;2023-05-29T11:54:42;101230.88;;;24.18;57.46
75886;BME280;64561;44.018;10.144;2023-05-29T11:57:19;101222.81;;;24.28;56.35
75886;BME280;64561;44.018;10.144;2023-05-29T11:59:47;101230.44;;;24.37;56.37
75886;BME280;64561;44.018;10.144;2023-05-29T12:02:15;101224.06;;;24.47;56.39
75886;BME280;64561;44.018;10.144;2023-05-29T12:04:43;101224.81;;;24.52;57.14
75886;BME280;64561;44.018;10.144;2023-05-29T12:07:19;101224.47;;;24.64;54.74
75886;BME280;64561;44.018;10.144;2023-05-29T12:09:46;101227.03;;;24.66;55.08
75886;BME280;64561;44.018;10.144;2023-05-29T12:12:15;101222.72;;;24.63;54.64
75886;BME280;64561;44.018;10.144;2023-05-29T12:14:42;101217.47;;;24.65;54.73
75886;BME280;64561;44.018;10.144;2023-05-29T12:17:09;101219.16;;;24.68;54.93
75886;BME280;64561;44.018;10.144;2023-05-29T12:19:37;101213.06;;;24.67;53.89
75886;BME280;64561;44.018;10.144;2023-05-29T12:22:04;101216.38;;;24.72;54.18
75886;BME280;64561;44.018;10.144;2023-05-29T12:24:31;101220.09;;;24.65;53.34
75886;BME280;64561;44.018;10.144;2023-05-29T12:27:08;101208.00;;;24.61;48.14
75886;BME280;64561;44.018;10.144;2023-05-29T12:29:36;101214.19;;;24.57;48.77
75886;BME280;64561;44.018;10.144;2023-05-29T12:32:03;101209.78;;;24.59;51.26
75886;BME280;64561;44.018;10.144;2023-05-29T12:34:36;101208.59;;;24.71;52.11
75886;BME280;64561;44.018;10.144;2023-05-29T12:37:06;101205.53;;;24.84;50.83
75886;BME280;64561;44.018;10.144;2023-05-29T12:39:37;101205.88;;;25.03;50.29
75886;BME280;64561;44.018;10.144;2023-05-29T12:42:05;101205.38;;;25.20;45.81
75886;BME280;64561;44.018;10.144;2023-05-29T12:44:33;101204.69;;;25.15;46.49
75886;BME280;64561;44.018;10.144;2023-05-29T12:47:00;101197.22;;;25.00;44.49
75886;BME280;64561;44.018;10.144;2023-05-29T12:49:27;101201.44;;;25.05;44.90
75886;BME280;64561;44.018;10.144;2023-05-29T12:52:04;101198.69;;;25.10;44.09
75886;BME280;64561;44.018;10.144;2023-05-29T12:54:34;101195.25;;;25.08;46.95
75886;BME280;64561;44.018;10.144;2023-05-29T12:57:01;101196.72;;;25.18;44.76
75886;BME280;64561;44.018;10.144;2023-05-29T12:59:28;101192.25;;;25.22;42.01
75886;BME280;64561;44.018;10.144;2023-05-29T13:01:55;101188.00;;;25.18;45.56
75886;BME280;64561;44.018;10.144;2023-05-29T13:04:22;101197.81;;;25.39;42.56
75886;BME280;64561;44.018;10.144;2023-05-29T13:06:50;101180.44;;;25.37;43.31
75886;BME280;64561;44.018;10.144;2023-05-29T13:09:17;101182.16;;;25.36;42.63
75886;BME280;64561;44.018;10.144;2023-05-29T13:11:44;101180.34;;;25.38;45.73
75886;BME280;64561;44.018;10.144;2023-05-29T13:14:11;101176.84;;;25.39;47.02
75886;BME280;64561;44.018;10.144;2023-05-29T13:16:38;101178.66;;;25.37;43.74
75886;BME280;64561;44.018;10.144;2023-05-29T13:19:05;101179.94;;;25.24;43.46
75886;BME280;64561;44.018;10.144;2023-05-29T13:21:33;101178.97;;;25.26;44.11
75886;BME280;64561;44.018;10.144;2023-05-29T13:24:00;101184.09;;;25.31;43.22
75886;BME280;64561;44.018;10.144;2023-05-29T13:26:27;101177.94;;;25.32;42.24
75886;BME280;64561;44.018;10.144;2023-05-29T13:28:54;101178.75;;;25.34;41.46